Terminal Aerodrome Forecast
Issued by NWS

Home | Current Version | Previous Version | Text Only | Print | Product List | Glossary On
Versions: 1 2 3 4 5 6 7 8 9 10 11 12
000
FTUS45 KTFX 042326
TAFHLN
TAF
KHLN 042326Z 0500/0524 VRB06KT P6SM SCT150 BKN200
      TEMPO 0500/0502 30008G14KT
     FM050400 VRB05KT P6SM SCT120 BKN150
     FM051100 33008KT P6SM VCSH SCT050 BKN080
     FM051800 34007KT P6SM SCT080 BKN120=

USA.gov is the U.S. government's official web portal to all federal, state and local government web resources and services.